sensor_id;sensor_type;location;lat;lon;timestamp;pressure;altitude;pressure_sealevel;temperature;humidity
82353;BME280;71954;47.430;18.920;2023-12-29T00:01:22;100324.09;;;2.41;76.02
82353;BME280;71954;47.430;18.920;2023-12-29T00:03:49;100330.78;;;2.49;75.34
82353;BME280;71954;47.430;18.920;2023-12-29T00:06:15;100327.22;;;2.51;75.69
82353;BME280;71954;47.430;18.920;2023-12-29T00:08:42;100317.53;;;2.53;74.38
82353;BME280;71954;47.430;18.920;2023-12-29T00:11:19;100321.66;;;2.59;74.40
82353;BME280;71954;47.430;18.920;2023-12-29T00:13:47;100314.56;;;2.61;73.66
82353;BME280;71954;47.430;18.920;2023-12-29T00:16:16;100309.28;;;2.62;72.92
82353;BME280;71954;47.430;18.920;2023-12-29T00:18:43;100304.88;;;2.63;74.07
82353;BME280;71954;47.430;18.920;2023-12-29T00:21:10;100303.16;;;2.62;73.75
82353;BME280;71954;47.430;18.920;2023-12-29T00:23:37;100296.44;;;2.56;74.69
82353;BME280;71954;47.430;18.920;2023-12-29T00:26:04;100288.63;;;2.55;74.62
82353;BME280;71954;47.430;18.920;2023-12-29T00:28:30;100298.19;;;2.56;74.88
82353;BME280;71954;47.430;18.920;2023-12-29T00:30:57;100299.84;;;2.58;74.22
82353;BME280;71954;47.430;18.920;2023-12-29T00:33:28;100301.56;;;2.59;73.85
82353;BME280;71954;47.430;18.920;2023-12-29T00:35:56;100296.44;;;2.56;74.83
82353;BME280;71954;47.430;18.920;2023-12-29T00:38:23;100293.97;;;2.53;75.20
82353;BME280;71954;47.430;18.920;2023-12-29T00:40:49;100300.09;;;2.52;75.73
82353;BME280;71954;47.430;18.920;2023-12-29T00:43:16;100301.81;;;2.53;75.93
82353;BME280;71954;47.430;18.920;2023-12-29T00:45:44;100294.66;;;2.57;75.69
82353;BME280;71954;47.430;18.920;2023-12-29T00:48:11;100289.22;;;2.61;75.46
82353;BME280;71954;47.430;18.920;2023-12-29T00:50:38;100285.53;;;2.65;74.81
82353;BME280;71954;47.430;18.920;2023-12-29T00:53:05;100293.28;;;2.68;75.38
82353;BME280;71954;47.430;18.920;2023-12-29T00:55:31;100294.94;;;2.71;75.36
82353;BME280;71954;47.430;18.920;2023-12-29T00:57:58;100289.59;;;2.72;75.50
82353;BME280;71954;47.430;18.920;2023-12-29T01:00:25;100293.81;;;2.76;74.79
82353;BME280;71954;47.430;18.920;2023-12-29T01:02:52;100286.81;;;2.77;74.71
82353;BME280;71954;47.430;18.920;2023-12-29T01:05:19;100279.75;;;2.77;75.02
82353;BME280;71954;47.430;18.920;2023-12-29T01:07:47;100288.56;;;2.76;75.51
82353;BME280;71954;47.430;18.920;2023-12-29T01:10:14;100293.66;;;2.79;75.43
82353;BME280;71954;47.430;18.920;2023-12-29T01:12:40;100300.47;;;2.83;75.50
82353;BME280;71954;47.430;18.920;2023-12-29T01:15:07;100295.16;;;2.85;75.12
82353;BME280;71954;47.430;18.920;2023-12-29T01:17:34;100300.94;;;2.73;75.04
82353;BME280;71954;47.430;18.920;2023-12-29T01:20:01;100308.81;;;2.73;75.19
82353;BME280;71954;47.430;18.920;2023-12-29T01:22:30;100291.38;;;2.72;75.52
82353;BME280;71954;47.430;18.920;2023-12-29T01:24:59;100300.88;;;2.74;75.75
82353;BME280;71954;47.430;18.920;2023-12-29T01:27:26;100286.88;;;2.75;75.37
82353;BME280;71954;47.430;18.920;2023-12-29T01:29:53;100281.56;;;2.77;75.42
82353;BME280;71954;47.430;18.920;2023-12-29T01:32:20;100292.75;;;2.80;75.72
82353;BME280;71954;47.430;18.920;2023-12-29T01:34:48;100290.97;;;2.81;74.87
82353;BME280;71954;47.430;18.920;2023-12-29T01:37:15;100294.41;;;2.83;74.72
82353;BME280;71954;47.430;18.920;2023-12-29T01:39:42;100287.50;;;2.80;74.50
82353;BME280;71954;47.430;18.920;2023-12-29T01:42:08;100287.56;;;2.79;75.50
82353;BME280;71954;47.430;18.920;2023-12-29T01:44:35;100276.66;;;2.69;74.13
82353;BME280;71954;47.430;18.920;2023-12-29T01:47:02;100271.78;;;2.60;75.78
82353;BME280;71954;47.430;18.920;2023-12-29T01:49:33;100274.41;;;2.60;76.90
82353;BME280;71954;47.430;18.920;2023-12-29T01:52:00;100260.66;;;2.55;76.35
82353;BME280;71954;47.430;18.920;2023-12-29T01:54:32;100264.22;;;2.34;76.81
82353;BME280;71954;47.430;18.920;2023-12-29T01:57:00;100262.22;;;2.19;77.18
82353;BME280;71954;47.430;18.920;2023-12-29T01:59:29;100260.41;;;2.21;77.72
82353;BME280;71954;47.430;18.920;2023-12-29T02:01:57;100271.53;;;2.26;77.92
82353;BME280;71954;47.430;18.920;2023-12-29T02:04:25;100254.09;;;2.25;77.81
82353;BME280;71954;47.430;18.920;2023-12-29T02:06:52;100260.91;;;2.09;79.43
82353;BME280;71954;47.430;18.920;2023-12-29T02:09:19;100254.00;;;1.86;79.74
82353;BME280;71954;47.430;18.920;2023-12-29T02:11:46;100258.13;;;1.91;79.94
82353;BME280;71954;47.430;18.920;2023-12-29T02:14:14;100256.16;;;1.96;79.92
82353;BME280;71954;47.430;18.920;2023-12-29T02:17:10;100254.09;;;1.83;80.24
82353;BME280;71954;47.430;18.920;2023-12-29T02:19:52;100258.19;;;1.90;79.82
82353;BME280;71954;47.430;18.920;2023-12-29T02:22:19;100250.34;;;1.90;79.79
82353;BME280;71954;47.430;18.920;2023-12-29T02:24:46;100255.13;;;2.00;79.68
82353;BME280;71954;47.430;18.920;2023-12-29T02:29:45;100241.50;;;1.92;80.43
82353;BME280;71954;47.430;18.920;2023-12-29T02:32:17;100250.03;;;1.97;80.22
82353;BME280;71954;47.430;18.920;2023-12-29T02:34:47;100251.75;;;1.98;79.74
82353;BME280;71954;47.430;18.920;2023-12-29T02:37:15;100247.97;;;1.84;80.01
82353;BME280;71954;47.430;18.920;2023-12-29T02:39:42;100250.28;;;1.91;79.98
82353;BME280;71954;47.430;18.920;2023-12-29T02:42:09;100249.13;;;1.98;79.71
82353;BME280;71954;47.430;18.920;2023-12-29T02:44:36;100253.09;;;2.07;79.59
82353;BME280;71954;47.430;18.920;2023-12-29T02:47:02;100250.44;;;2.09;78.58
82353;BME280;71954;47.430;18.920;2023-12-29T02:49:30;100238.25;;;2.08;78.80
82353;BME280;71954;47.430;18.920;2023-12-29T02:51:57;100238.78;;;2.16;79.27
82353;BME280;71954;47.430;18.920;2023-12-29T02:54:24;100238.41;;;2.25;78.66
82353;BME280;71954;47.430;18.920;2023-12-29T02:56:50;100238.78;;;2.16;79.38
82353;BME280;71954;47.430;18.920;2023-12-29T02:59:17;100231.06;;;2.13;79.74
82353;BME280;71954;47.430;18.920;2023-12-29T03:01:44;100230.59;;;2.23;79.59
82353;BME280;71954;47.430;18.920;2023-12-29T03:04:11;100229.38;;;2.32;78.89
82353;BME280;71954;47.430;18.920;2023-12-29T03:06:40;100223.75;;;2.41;78.51
82353;BME280;71954;47.430;18.920;2023-12-29T03:09:06;100211.69;;;2.37;78.47
82353;BME280;71954;47.430;18.920;2023-12-29T03:11:33;100217.72;;;2.39;78.62
82353;BME280;71954;47.430;18.920;2023-12-29T03:13:59;100224.47;;;2.44;78.25
82353;BME280;71954;47.430;18.920;2023-12-29T03:16:26;100218.03;;;2.52;78.10
82353;BME280;71954;47.430;18.920;2023-12-29T03:18:52;100212.53;;;2.58;77.85
82353;BME280;71954;47.430;18.920;2023-12-29T03:21:19;100213.88;;;2.66;76.94
82353;BME280;71954;47.430;18.920;2023-12-29T03:23:46;100217.13;;;2.71;77.13
82353;BME280;71954;47.430;18.920;2023-12-29T03:26:12;100213.28;;;2.80;76.33
82353;BME280;71954;47.430;18.920;2023-12-29T03:28:39;100218.31;;;2.84;76.02
82353;BME280;71954;47.430;18.920;2023-12-29T03:31:06;100221.66;;;2.88;75.53
82353;BME280;71954;47.430;18.920;2023-12-29T03:33:33;100224.53;;;2.82;76.02
82353;BME280;71954;47.430;18.920;2023-12-29T03:36:00;100232.19;;;2.86;75.90
82353;BME280;71954;47.430;18.920;2023-12-29T03:38:26;100230.75;;;2.79;76.75
82353;BME280;71954;47.430;18.920;2023-12-29T03:40:53;100221.84;;;2.65;76.88
82353;BME280;71954;47.430;18.920;2023-12-29T03:43:19;100212.47;;;2.59;77.36
82353;BME280;71954;47.430;18.920;2023-12-29T03:45:46;100224.50;;;2.63;77.79
82353;BME280;71954;47.430;18.920;2023-12-29T03:48:13;100221.63;;;2.69;77.22
82353;BME280;71954;47.430;18.920;2023-12-29T03:50:39;100218.09;;;2.70;77.06
82353;BME280;71954;47.430;18.920;2023-12-29T03:53:06;100210.41;;;2.66;77.32
82353;BME280;71954;47.430;18.920;2023-12-29T03:55:32;100214.78;;;2.65;77.21
82353;BME280;71954;47.430;18.920;2023-12-29T03:57:59;100223.66;;;2.63;77.33
82353;BME280;71954;47.430;18.920;2023-12-29T04:00:28;100215.53;;;2.49;77.81
82353;BME280;71954;47.430;18.920;2023-12-29T04:02:55;100219.81;;;2.31;78.38
82353;BME280;71954;47.430;18.920;2023-12-29T04:05:22;100226.53;;;2.36;78.03
82353;BME280;71954;47.430;18.920;2023-12-29T04:07:48;100220.44;;;2.36;79.10
82353;BME280;71954;47.430;18.920;2023-12-29T04:10:15;100218.25;;;2.27;80.66
82353;BME280;71954;47.430;18.920;2023-12-29T04:12:41;100218.03;;;2.31;80.09
82353;BME280;71954;47.430;18.920;2023-12-29T04:15:08;100226.53;;;2.36;78.77
82353;BME280;71954;47.430;18.920;2023-12-29T04:17:35;100220.41;;;2.37;79.25
82353;BME280;71954;47.430;18.920;2023-12-29T04:20:02;100226.28;;;2.42;78.82
82353;BME280;71954;47.430;18.920;2023-12-29T04:22:29;100220.72;;;2.50;78.17
82353;BME280;71954;47.430;18.920;2023-12-29T04:24:56;100223.22;;;2.53;77.71
82353;BME280;71954;47.430;18.920;2023-12-29T04:27:22;100224.78;;;2.57;77.96
82353;BME280;71954;47.430;18.920;2023-12-29T04:29:49;100226.22;;;2.64;78.15
82353;BME280;71954;47.430;18.920;2023-12-29T04:32:16;100227.78;;;2.68;75.83
82353;BME280;71954;47.430;18.920;2023-12-29T04:34:42;100241.53;;;2.73;76.49
82353;BME280;71954;47.430;18.920;2023-12-29T04:37:09;100231.03;;;2.73;76.19
82353;BME280;71954;47.430;18.920;2023-12-29T04:39:36;100217.72;;;2.59;76.77
82353;BME280;71954;47.430;18.920;2023-12-29T04:42:02;100222.81;;;2.62;76.77
82353;BME280;71954;47.430;18.920;2023-12-29T04:44:29;100217.91;;;2.55;77.11
82353;BME280;71954;47.430;18.920;2023-12-29T04:46:56;100213.00;;;2.47;77.77
82353;BME280;71954;47.430;18.920;2023-12-29T04:49:22;100229.75;;;2.43;76.90
82353;BME280;71954;47.430;18.920;2023-12-29T04:51:49;100235.13;;;2.40;77.17
82353;BME280;71954;47.430;18.920;2023-12-29T04:54:16;100229.25;;;2.35;78.46
82353;BME280;71954;47.430;18.920;2023-12-29T04:56:42;100234.59;;;2.32;77.78
82353;BME280;71954;47.430;18.920;2023-12-29T04:59:09;100227.53;;;2.34;77.80
82353;BME280;71954;47.430;18.920;2023-12-29T05:01:35;100221.66;;;2.29;79.21
82353;BME280;71954;47.430;18.920;2023-12-29T05:04:03;100232.78;;;2.34;78.88
82353;BME280;71954;47.430;18.920;2023-12-29T05:06:29;100230.94;;;2.36;78.33
82353;BME280;71954;47.430;18.920;2023-12-29T05:08:56;100222.38;;;2.32;79.01
82353;BME280;71954;47.430;18.920;2023-12-29T05:11:22;100223.88;;;2.38;78.69
82353;BME280;71954;47.430;18.920;2023-12-29T05:13:49;100226.16;;;2.45;77.95
82353;BME280;71954;47.430;18.920;2023-12-29T05:16:16;100221.03;;;2.42;78.81
82353;BME280;71954;47.430;18.920;2023-12-29T05:18:42;100216.66;;;2.43;79.00
82353;BME280;71954;47.430;18.920;2023-12-29T05:21:19;100219.06;;;2.47;78.14
82353;BME280;71954;47.430;18.920;2023-12-29T05:23:45;100221.50;;;2.52;78.43
82353;BME280;71954;47.430;18.920;2023-12-29T05:26:14;100231.72;;;2.58;78.25
82353;BME280;71954;47.430;18.920;2023-12-29T05:28:41;100226.34;;;2.61;77.02
82353;BME280;71954;47.430;18.920;2023-12-29T05:31:08;100234.13;;;2.63;77.09
82353;BME280;71954;47.430;18.920;2023-12-29T05:33:35;100226.22;;;2.64;75.60
82353;BME280;71954;47.430;18.920;2023-12-29T05:36:06;100225.41;;;2.62;76.98
82353;BME280;71954;47.430;18.920;2023-12-29T05:38:39;100241.94;;;2.64;76.06
82353;BME280;71954;47.430;18.920;2023-12-29T05:41:07;100242.78;;;2.65;75.92
82353;BME280;71954;47.430;18.920;2023-12-29T05:43:34;100253.06;;;2.69;76.42
82353;BME280;71954;47.430;18.920;2023-12-29T05:46:01;100240.50;;;2.57;76.72
82353;BME280;71954;47.430;18.920;2023-12-29T05:48:28;100253.59;;;2.57;76.99
82353;BME280;71954;47.430;18.920;2023-12-29T05:50:54;100251.03;;;2.56;76.23
82353;BME280;71954;47.430;18.920;2023-12-29T05:53:21;100247.56;;;2.55;76.91
82353;BME280;71954;47.430;18.920;2023-12-29T05:55:48;100241.63;;;2.52;76.01
82353;BME280;71954;47.430;18.920;2023-12-29T05:58:14;100244.25;;;2.52;76.15
82353;BME280;71954;47.430;18.920;2023-12-29T06:00:41;100233.69;;;2.53;76.79
82353;BME280;71954;47.430;18.920;2023-12-29T06:03:08;100242.31;;;2.55;76.96
82353;BME280;71954;47.430;18.920;2023-12-29T06:05:35;100240.50;;;2.57;76.21
82353;BME280;71954;47.430;18.920;2023-12-29T06:08:01;100242.22;;;2.58;76.63
82353;BME280;71954;47.430;18.920;2023-12-29T06:10:28;100240.28;;;2.62;75.73
82353;BME280;71954;47.430;18.920;2023-12-29T06:12:55;100245.16;;;2.51;75.71
82353;BME280;71954;47.430;18.920;2023-12-29T06:15:22;100253.97;;;2.48;76.16
82353;BME280;71954;47.430;18.920;2023-12-29T06:17:48;100254.84;;;2.49;75.00
82353;BME280;71954;47.430;18.920;2023-12-29T06:20:15;100266.97;;;2.51;75.53
82353;BME280;71954;47.430;18.920;2023-12-29T06:22:42;100265.13;;;2.53;75.26
82353;BME280;71954;47.430;18.920;2023-12-29T06:25:12;100274.66;;;2.54;75.22
82353;BME280;71954;47.430;18.920;2023-12-29T06:27:39;100269.44;;;2.54;75.32
82353;BME280;71954;47.430;18.920;2023-12-29T06:30:08;100267.28;;;2.43;74.59
82353;BME280;71954;47.430;18.920;2023-12-29T06:32:35;100267.34;;;2.42;75.21
82353;BME280;71954;47.430;18.920;2023-12-29T06:35:02;100264.22;;;2.34;75.21
82353;BME280;71954;47.430;18.920;2023-12-29T06:37:29;100261.19;;;2.23;75.97
82353;BME280;71954;47.430;18.920;2023-12-29T06:39:56;100257.25;;;2.13;76.39
82353;BME280;71954;47.430;18.920;2023-12-29T06:42:22;100260.84;;;2.10;77.12
82353;BME280;71954;47.430;18.920;2023-12-29T06:44:49;100266.00;;;2.12;77.54
82353;BME280;71954;47.430;18.920;2023-12-29T06:47:16;100266.75;;;2.15;77.48
82353;BME280;71954;47.430;18.920;2023-12-29T06:49:42;100268.88;;;2.05;77.33
82353;BME280;71954;47.430;18.920;2023-12-29T06:52:09;100267.06;;;2.08;77.50
82353;BME280;71954;47.430;18.920;2023-12-29T06:54:36;100270.22;;;2.16;77.53
82353;BME280;71954;47.430;18.920;2023-12-29T06:57:03;100275.09;;;2.23;77.58
82353;BME280;71954;47.430;18.920;2023-12-29T06:59:29;100279.13;;;2.32;76.83
82353;BME280;71954;47.430;18.920;2023-12-29T07:01:56;100273.63;;;2.38;77.11
82353;BME280;71954;47.430;18.920;2023-12-29T07:04:22;100265.50;;;2.44;76.96
82353;BME280;71954;47.430;18.920;2023-12-29T07:06:49;100272.19;;;2.51;77.43
82353;BME280;71954;47.430;18.920;2023-12-29T07:09:16;100271.94;;;2.57;77.26
82353;BME280;71954;47.430;18.920;2023-12-29T07:11:47;100269.97;;;2.62;77.00
82353;BME280;71954;47.430;18.920;2023-12-29T07:14:15;100268.84;;;2.68;77.02
82353;BME280;71954;47.430;18.920;2023-12-29T07:16:42;100277.34;;;2.73;76.92
82353;BME280;71954;47.430;18.920;2023-12-29T07:19:08;100269.69;;;2.68;76.64
82353;BME280;71954;47.430;18.920;2023-12-29T07:21:35;100270.16;;;2.58;77.81
82353;BME280;71954;47.430;18.920;2023-12-29T07:24:02;100273.97;;;2.51;78.38
82353;BME280;71954;47.430;18.920;2023-12-29T07:26:28;100275.63;;;2.53;79.05
82353;BME280;71954;47.430;18.920;2023-12-29T07:28:55;100276.19;;;2.60;79.52
82353;BME280;71954;47.430;18.920;2023-12-29T07:31:23;100281.16;;;2.66;79.67
82353;BME280;71954;47.430;18.920;2023-12-29T07:33:51;100277.41;;;2.71;78.99
82353;BME280;71954;47.430;18.920;2023-12-29T07:36:18;100292.09;;;2.75;78.83
82353;BME280;71954;47.430;18.920;2023-12-29T07:38:44;100280.03;;;2.71;78.38
82353;BME280;71954;47.430;18.920;2023-12-29T07:41:11;100278.41;;;2.69;78.57
82353;BME280;71954;47.430;18.920;2023-12-29T07:43:37;100274.78;;;2.71;78.50
82353;BME280;71954;47.430;18.920;2023-12-29T07:46:04;100266.16;;;2.69;78.22
82353;BME280;71954;47.430;18.920;2023-12-29T07:48:31;100268.91;;;2.66;78.52
82353;BME280;71954;47.430;18.920;2023-12-29T07:51:03;100260.06;;;2.69;78.51
82353;BME280;71954;47.430;18.920;2023-12-29T07:53:30;100268.53;;;2.75;78.40
82353;BME280;71954;47.430;18.920;2023-12-29T07:55:57;100258.53;;;2.83;78.51
82353;BME280;71954;47.430;18.920;2023-12-29T07:58:24;100260.88;;;2.90;77.98
82353;BME280;71954;47.430;18.920;2023-12-29T08:00:50;100261.41;;;2.98;78.24
82353;BME280;71954;47.430;18.920;2023-12-29T08:03:17;100261.91;;;3.06;77.72
82353;BME280;71954;47.430;18.920;2023-12-29T08:05:44;100259.03;;;3.12;77.67
82353;BME280;71954;47.430;18.920;2023-12-29T08:08:12;100263.06;;;3.19;77.38
82353;BME280;71954;47.430;18.920;2023-12-29T08:10:39;100275.91;;;3.25;77.45
82353;BME280;71954;47.430;18.920;2023-12-29T08:13:05;100273.91;;;3.30;76.85
82353;BME280;71954;47.430;18.920;2023-12-29T08:15:35;100275.53;;;3.33;76.70
82353;BME280;71954;47.430;18.920;2023-12-29T08:18:06;100281.41;;;3.38;76.88
82353;BME280;71954;47.430;18.920;2023-12-29T08:20:33;100292.63;;;3.41;76.86
82353;BME280;71954;47.430;18.920;2023-12-29T08:22:59;100299.31;;;3.48;76.87
82353;BME280;71954;47.430;18.920;2023-12-29T08:25:29;100294.81;;;3.50;76.74
82353;BME280;71954;47.430;18.920;2023-12-29T08:27:56;100286.00;;;3.14;77.73
82353;BME280;71954;47.430;18.920;2023-12-29T08:30:23;100285.09;;;3.15;77.85
82353;BME280;71954;47.430;18.920;2023-12-29T08:32:50;100290.47;;;3.12;78.67
82353;BME280;71954;47.430;18.920;2023-12-29T08:35:16;100285.25;;;3.12;78.79
82353;BME280;71954;47.430;18.920;2023-12-29T08:37:43;100291.03;;;3.00;78.94
82353;BME280;71954;47.430;18.920;2023-12-29T08:40:10;100293.50;;;3.03;79.20
82353;BME280;71954;47.430;18.920;2023-12-29T08:42:37;100294.03;;;3.11;78.97
82353;BME280;71954;47.430;18.920;2023-12-29T08:45:04;100294.03;;;3.11;79.13
82353;BME280;71954;47.430;18.920;2023-12-29T08:47:32;100292.88;;;3.16;79.09
82353;BME280;71954;47.430;18.920;2023-12-29T08:49:59;100294.44;;;3.20;78.87
82353;BME280;71954;47.430;18.920;2023-12-29T08:52:27;100285.88;;;3.17;79.64
82353;BME280;71954;47.430;18.920;2023-12-29T08:54:54;100289.31;;;2.99;80.65
82353;BME280;71954;47.430;18.920;2023-12-29T08:57:21;100287.75;;;2.95;80.66
82353;BME280;71954;47.430;18.920;2023-12-29T08:59:47;100286.63;;;3.00;80.66
82353;BME280;71954;47.430;18.920;2023-12-29T09:02:14;100280.28;;;3.06;80.17
82353;BME280;71954;47.430;18.920;2023-12-29T09:04:41;100284.16;;;3.16;80.25
82353;BME280;71954;47.430;18.920;2023-12-29T09:07:07;100291.75;;;3.22;80.33
82353;BME280;71954;47.430;18.920;2023-12-29T09:09:34;100293.97;;;3.31;81.00
82353;BME280;71954;47.430;18.920;2023-12-29T09:12:01;100294.41;;;3.41;81.83
82353;BME280;71954;47.430;18.920;2023-12-29T09:14:28;100292.19;;;3.50;81.67
82353;BME280;71954;47.430;18.920;2023-12-29T09:16:57;100277.94;;;3.56;82.25
82353;BME280;71954;47.430;18.920;2023-12-29T09:19:24;100276.81;;;3.61;81.47
82353;BME280;71954;47.430;18.920;2023-12-29T09:22:04;100270.19;;;3.72;81.80
82353;BME280;71954;47.430;18.920;2023-12-29T09:24:31;100269.75;;;3.81;82.04
82353;BME280;71954;47.430;18.920;2023-12-29T09:26:57;100253.78;;;3.85;82.88
82353;BME280;71954;47.430;18.920;2023-12-29T09:29:24;100253.50;;;3.91;83.68
82353;BME280;71954;47.430;18.920;2023-12-29T09:31:50;100256.50;;;4.01;84.15
82353;BME280;71954;47.430;18.920;2023-12-29T09:34:17;100257.63;;;4.14;84.60
82353;BME280;71954;47.430;18.920;2023-12-29T09:36:44;100266.81;;;4.23;84.62
82353;BME280;71954;47.430;18.920;2023-12-29T09:39:11;100261.03;;;4.33;85.35
82353;BME280;71954;47.430;18.920;2023-12-29T09:41:42;100266.59;;;4.44;84.88
82353;BME280;71954;47.430;18.920;2023-12-29T09:44:14;100268.06;;;4.50;84.24
82353;BME280;71954;47.430;18.920;2023-12-29T09:46:42;100262.25;;;4.61;84.03
82353;BME280;71954;47.430;18.920;2023-12-29T09:49:09;100257.34;;;4.70;84.28
82353;BME280;71954;47.430;18.920;2023-12-29T09:51:38;100267.41;;;4.79;84.25
82353;BME280;71954;47.430;18.920;2023-12-29T09:54:08;100271.16;;;4.91;84.42
82353;BME280;71954;47.430;18.920;2023-12-29T09:56:38;100268.88;;;5.01;84.80
82353;BME280;71954;47.430;18.920;2023-12-29T09:59:06;100259.69;;;5.09;84.84
82353;BME280;71954;47.430;18.920;2023-12-29T10:01:33;100259.19;;;5.18;84.80
82353;BME280;71954;47.430;18.920;2023-12-29T10:04:01;100248.31;;;5.24;84.32
82353;BME280;71954;47.430;18.920;2023-12-29T10:06:31;100247.81;;;5.33;83.92
82353;BME280;71954;47.430;18.920;2023-12-29T10:09:02;100248.34;;;5.40;83.63
82353;BME280;71954;47.430;18.920;2023-12-29T10:11:34;100237.41;;;5.48;83.66
82353;BME280;71954;47.430;18.920;2023-12-29T10:14:13;100247.59;;;5.54;82.63
82353;BME280;71954;47.430;18.920;2023-12-29T10:16:49;100238.50;;;5.59;82.90
82353;BME280;71954;47.430;18.920;2023-12-29T10:19:32;100230.69;;;5.58;84.05
82353;BME280;71954;47.430;18.920;2023-12-29T10:22:11;100226.78;;;5.65;83.86
82353;BME280;71954;47.430;18.920;2023-12-29T10:24:41;100235.84;;;5.75;83.65
82353;BME280;71954;47.430;18.920;2023-12-29T10:27:10;100225.91;;;5.80;83.23
82353;BME280;71954;47.430;18.920;2023-12-29T10:29:38;100228.25;;;5.85;82.69
82353;BME280;71954;47.430;18.920;2023-12-29T10:32:05;100225.53;;;5.86;83.05
82353;BME280;71954;47.430;18.920;2023-12-29T10:34:32;100229.00;;;5.88;82.72
82353;BME280;71954;47.430;18.920;2023-12-29T10:36:59;100228.78;;;5.91;82.67
82353;BME280;71954;47.430;18.920;2023-12-29T10:39:25;100219.69;;;5.97;82.39
82353;BME280;71954;47.430;18.920;2023-12-29T10:42:05;100217.47;;;6.05;82.42
82353;BME280;71954;47.430;18.920;2023-12-29T10:44:33;100202.34;;;6.08;82.19
82353;BME280;71954;47.430;18.920;2023-12-29T10:47:13;100208.00;;;6.17;82.16
82353;BME280;71954;47.430;18.920;2023-12-29T10:49:41;100204.06;;;6.24;81.93
82353;BME280;71954;47.430;18.920;2023-12-29T10:52:15;100188.75;;;6.30;82.05
82353;BME280;71954;47.430;18.920;2023-12-29T10:54:43;100189.31;;;6.35;81.52
82353;BME280;71954;47.430;18.920;2023-12-29T10:57:11;100190.09;;;6.37;81.08
82353;BME280;71954;47.430;18.920;2023-12-29T10:59:38;100193.38;;;6.41;81.43
82353;BME280;71954;47.430;18.920;2023-12-29T11:02:05;100186.03;;;6.46;81.55
82353;BME280;71954;47.430;18.920;2023-12-29T11:04:35;100173.63;;;6.48;81.47
82353;BME280;71954;47.430;18.920;2023-12-29T11:07:01;100173.31;;;6.52;80.47
82353;BME280;71954;47.430;18.920;2023-12-29T11:09:29;100165.97;;;6.58;80.63
82353;BME280;71954;47.430;18.920;2023-12-29T11:12:00;100166.81;;;6.58;81.18
82353;BME280;71954;47.430;18.920;2023-12-29T11:14:27;100170.16;;;6.62;81.64
82353;BME280;71954;47.430;18.920;2023-12-29T11:16:55;100167.41;;;6.63;81.12
82353;BME280;71954;47.430;18.920;2023-12-29T11:19:22;100170.88;;;6.64;81.25
82353;BME280;71954;47.430;18.920;2023-12-29T11:21:56;100173.25;;;6.68;81.71
82353;BME280;71954;47.430;18.920;2023-12-29T11:24:23;100163.72;;;6.66;81.18
82353;BME280;71954;47.430;18.920;2023-12-29T11:27:05;100157.44;;;6.68;81.89
82353;BME280;71954;47.430;18.920;2023-12-29T11:29:35;100144.81;;;6.73;81.52
82353;BME280;71954;47.430;18.920;2023-12-29T11:32:03;100143.56;;;6.79;81.99
82353;BME280;71954;47.430;18.920;2023-12-29T11:34:48;100139.78;;;6.83;81.74
82353;BME280;71954;47.430;18.920;2023-12-29T11:37:28;100135.84;;;6.90;80.88
82353;BME280;71954;47.430;18.920;2023-12-29T11:40:04;100134.59;;;6.95;80.08
82353;BME280;71954;47.430;18.920;2023-12-29T11:42:38;100126.50;;;6.99;80.42
82353;BME280;71954;47.430;18.920;2023-12-29T11:45:25;100130.63;;;7.03;78.71
82353;BME280;71954;47.430;18.920;2023-12-29T11:47:54;100131.28;;;7.06;79.66
82353;BME280;71954;47.430;18.920;2023-12-29T11:50:36;100126.13;;;7.05;78.88
82353;BME280;71954;47.430;18.920;2023-12-29T11:53:04;100132.34;;;7.04;79.13
82353;BME280;71954;47.430;18.920;2023-12-29T11:55:37;100121.56;;;7.07;79.16
82353;BME280;71954;47.430;18.920;2023-12-29T12:00:49;100118.00;;;7.08;79.09
82353;BME280;71954;47.430;18.920;2023-12-29T12:03:26;100115.44;;;7.06;79.64
82353;BME280;71954;47.430;18.920;2023-12-29T12:05:56;100112.72;;;7.08;79.35
82353;BME280;71954;47.430;18.920;2023-12-29T12:08:32;100103.84;;;7.09;78.33
82353;BME280;71954;47.430;18.920;2023-12-29T12:13:57;100107.03;;;7.14;78.32
82353;BME280;71954;47.430;18.920;2023-12-29T12:19:09;100099.34;;;7.11;78.78
82353;BME280;71954;47.430;18.920;2023-12-29T12:21:37;100109.97;;;7.09;79.38
82353;BME280;71954;47.430;18.920;2023-12-29T12:24:04;100110.84;;;7.10;79.70
82353;BME280;71954;47.430;18.920;2023-12-29T12:26:31;100106.59;;;7.07;79.63
82353;BME280;71954;47.430;18.920;2023-12-29T12:28:58;100102.16;;;7.08;80.48
82353;BME280;71954;47.430;18.920;2023-12-29T12:31:25;100095.94;;;7.09;80.36
82353;BME280;71954;47.430;18.920;2023-12-29T12:33:54;100091.41;;;7.11;80.42
82353;BME280;71954;47.430;18.920;2023-12-29T12:36:22;100092.91;;;7.15;80.17
82353;BME280;71954;47.430;18.920;2023-12-29T12:38:53;100095.25;;;7.19;81.04
82353;BME280;71954;47.430;18.920;2023-12-29T12:41:21;100096.31;;;7.17;81.65
82353;BME280;71954;47.430;18.920;2023-12-29T12:46:34;100084.19;;;7.27;79.34
82353;BME280;71954;47.430;18.920;2023-12-29T12:49:04;100090.09;;;7.30;80.15
82353;BME280;71954;47.430;18.920;2023-12-29T12:51:33;100098.47;;;7.37;78.29
82353;BME280;71954;47.430;18.920;2023-12-29T12:54:00;100097.75;;;7.48;79.83
82353;BME280;71954;47.430;18.920;2023-12-29T12:56:27;100098.13;;;7.56;80.59
82353;BME280;71954;47.430;18.920;2023-12-29T12:58:56;100101.19;;;7.62;80.48
82353;BME280;71954;47.430;18.920;2023-12-29T13:01:24;100096.47;;;7.67;78.93
82353;BME280;71954;47.430;18.920;2023-12-29T13:03:52;100097.97;;;7.71;79.09
82353;BME280;71954;47.430;18.920;2023-12-29T13:06:20;100097.84;;;7.73;77.02
82353;BME280;71954;47.430;18.920;2023-12-29T13:08:50;100090.34;;;7.80;78.12